Terminal Aerodrome Forecast
Issued by NWS

Home | Current Version | Previous Version | Text Only | Print | Product List | Glossary On
Versions: 1 2 3 4 5 6 7 8 9 10 11 12 13 14
000
FTUS44 KBMX 290520
TAFTOI
TAF
KTOI 290520Z 2906/3006 00000KT P6SM SCT250
     FM290900 00000KT 5SM BR FEW250
     FM291400 33005KT P6SM VCSH SCT040
     FM292000 31008KT P6SM VCTS SCT040CB=

USA.gov is the U.S. government's official web portal to all federal, state and local government web resources and services.